Have a Safe July 4th! 

Flight Track Log - Related Links

Times and Time Zones

All times are in EDT time to prevent confusion due to time zone crossing. See the AWI4029 flight status page for this flight to view local times or setup timezone preferences in your user account.

Time Position Orientation Groundspeed Altitude Reporting Facility
EDT Latitude Longitude Course Direction KTS MPH feet Rate Location/Type
Thu 05:31:37 AM 42.7714 -73.8092 220° Southwest 180 207 1,100  Level Boston Center
Thu 05:32:55 AM 42.7978 -73.8833 296° West 221 254 3,500 1,870 Climbing Boston Center
Thu 05:33:00 AM 42.7333 -74.0589 270° West  Level FlightAware Approximate
Thu 05:34:00 AM 42.7334 -74.1884 270° West  Level FlightAware Approximate
Thu 05:34:11 AM 42.7836 -73.9903 260° West 267 307 5,900  Level Boston Center
Thu 05:35:00 AM 42.7259 -74.3148 236° Southwest  Level FlightAware Approximate
Thu 05:35:10 AM 42.7719 -74.0919 261° West 273 314 8,700  Level Boston Center
Thu 05:36:00 AM 42.6561 -74.4016 220° Southwest  Level FlightAware Approximate
Thu 05:36:12 AM 42.7600 -74.1822 260° West 273 314 11,200  Level Boston Center
Thu 05:37:13 AM 42.7458 -74.2947 260° West 278 320 13,200 1,714 Climbing Boston Center
Thu 05:38:11 AM 42.6903 -74.3694 225° Southwest 283 326 14,600 1,436 Climbing Boston Center
Thu 05:39:10 AM 42.6181 -74.4544 221° Southwest 308 354 16,000 700 Climbing Boston Center
Thu 05:40:11 AM 42.5583 -74.5231 220° Southwest 320 368 16,000  Level Boston Center
Thu 05:41:10 AM 42.4817 -74.6106 220° Southwest 325 374 16,000  Level Boston Center
Thu 05:42:11 AM 42.4178 -74.6844 221° Southwest 330 380 16,000  Level Boston Center
Thu 05:43:11 AM 42.3389 -74.7714 219° Southwest 330 380 16,000  Level Boston Center
Thu 05:45:02 AM 42.2067 -74.9256 221° Southwest 347 399 16,000  Level New York Center
Thu 05:46:02 AM 42.1333 -74.9964 216° Southwest 352 405 16,000  Level New York Center
Thu 05:47:02 AM 42.0561 -75.0639 213° Southwest 352 405 16,000  Level New York Center
Thu 05:48:02 AM 41.9725 -75.1311 211° Southwest 352 405 16,000  Level New York Center
Thu 05:49:02 AM 41.8822 -75.2031 211° Southwest 352 405 16,000 -150 Level New York Center
Thu 05:50:02 AM 41.8186 -75.2936 227° Southwest 352 405 15,700 -850 Descending New York Center
Thu 05:51:02 AM 41.7669 -75.3900 234° Southwest 346 398 14,300 -1,350 Descending New York Center
Thu 05:52:02 AM 41.7150 -75.4919 236° Southwest 341 392 13,000 -1,150 Descending New York Center
Thu 05:53:02 AM 41.6506 -75.5903 229° Southwest 336 387 12,000 -500 Descending New York Center
Thu 05:54:02 AM 41.5828 -75.6686 221° Southwest 330 380 12,000  Level New York Center
Thu 05:55:02 AM 41.5178 -75.7303 215° Southwest 325 374 12,000  Level New York Center
Thu 05:56:02 AM 41.4403 -75.7936 211° Southwest 325 374 12,000  Level New York Center
Thu 05:57:02 AM 41.3606 -75.8514 209° Southwest 330 380 12,000  Level New York Center
Thu 05:58:02 AM 41.2792 -75.9033 206° Southwest 330 380 12,000  Level New York Center
Thu 05:59:02 AM 41.1825 -75.9261 190° South 330 380 12,000  Level New York Center
Thu 06:00:02 AM 41.0911 -75.9192 177° South 331 381 12,000 -200 Level New York Center
Thu 06:01:02 AM 41.0061 -75.8606 153° Southeast 336 387 11,600 -650 Descending New York Center
Thu 06:02:02 AM 40.9317 -75.8000 148° Southeast 331 381 10,700 -800 Descending New York Center
Thu 06:03:02 AM 40.8528 -75.7422 151° Southeast 319 367 10,000 -350 Descending New York Center
Thu 06:04:02 AM 40.7842 -75.6878 149° Southeast 319 367 10,000  Level New York Center
Thu 06:05:02 AM 40.7075 -75.6303 150° Southeast 319 367 10,000  Level New York Center
Thu 06:06:02 AM 40.6206 -75.5639 150° Southeast 319 367 10,000  Level New York Center
Thu 06:07:02 AM 40.5539 -75.5100 148° Southeast 319 367 10,000  Level New York Center
Thu 06:08:02 AM 40.4831 -75.4589 151° Southeast 304 350 10,000  Level New York Center
Thu 06:09:02 AM 40.4078 -75.4100 154° Southeast 299 344 10,000 -600 Level New York Center
Thu 06:10:02 AM 40.3367 -75.3672 155° Southeast 270 311 8,800 -1,150 Descending New York Center
Thu 06:11:02 AM 40.2756 -75.3306 155° Southeast 254 292 7,700 -900 Descending New York Center
Thu 06:12:02 AM 40.2144 -75.2939 155° Southeast 248 285 7,000 -600 Descending New York Center
Thu 06:13:02 AM 40.1472 -75.2514 154° Southeast 254 292 6,500 -500 Descending New York Center
Thu 06:14:02 AM 40.0861 -75.2122 154° Southeast 249 287 6,000 -250 Descending New York Center
Thu 06:15:02 AM 40.0492 -75.1419 124° Southeast 237 273 6,000  Level New York Center
Thu 06:16:02 AM 40.0289 -75.0675 110° East 237 273 6,000 -300 Level New York Center
Thu 06:17:02 AM 40.0092 -74.9825 107° East 230 265 5,400 -750 Descending New York Center
Thu 06:18:02 AM 40.0031 -74.9169 97° East 216 249 4,500 -1,150 Descending New York Center
Thu 06:19:02 AM 39.9517 -74.8978 164° South 172 198 3,100 -750 Descending New York Center
Thu 06:20:02 AM 39.9292 -74.9478 240° Southwest 127 146 3,000 -50 Descending New York Center
Thu 06:21:02 AM 39.9142 -75.0144 254° West 165 190 3,000 -444 Level New York Center
Thu 06:22:17 AM 39.9000 -75.1000 258° West 180 207 2,000 -800 Descending Philadelphia TRACON
Thu 06:23:17 AM 39.8833 -75.1500 247° West 130 150 1,200 -700 Descending Philadelphia TRACON
Thu 06:24:17 AM 39.8833 -75.2000 270° West 134 154 600 -600 Descending Philadelphia TRACON

Login

Don't have an account? Register now (free) for customized features, flight alerts, and more!